sensor_id;sensor_type;location;lat;lon;timestamp;temperature;humidity
11599;DHT22;5855;48.840;9.188;2023-04-21T00:01:32;4.10;99.90
11599;DHT22;5855;48.840;9.188;2023-04-21T00:03:59;4.10;99.90
11599;DHT22;5855;48.840;9.188;2023-04-21T00:06:26;4.10;99.90
11599;DHT22;5855;48.840;9.188;2023-04-21T00:08:55;4.00;99.90
11599;DHT22;5855;48.840;9.188;2023-04-21T00:11:23;4.00;99.90
11599;DHT22;5855;48.840;9.188;2023-04-21T00:13:50;4.20;99.90
11599;DHT22;5855;48.840;9.188;2023-04-21T00:16:17;4.10;99.90
11599;DHT22;5855;48.840;9.188;2023-04-21T00:18:44;4.10;99.90
11599;DHT22;5855;48.840;9.188;2023-04-21T00:21:10;4.10;99.90
11599;DHT22;5855;48.840;9.188;2023-04-21T00:23:37;4.00;99.90
11599;DHT22;5855;48.840;9.188;2023-04-21T00:26:04;4.00;99.90
11599;DHT22;5855;48.840;9.188;2023-04-21T00:28:32;4.00;99.90
11599;DHT22;5855;48.840;9.188;2023-04-21T00:30:59;3.90;99.90
11599;DHT22;5855;48.840;9.188;2023-04-21T00:33:26;3.90;99.90
11599;DHT22;5855;48.840;9.188;2023-04-21T00:35:53;3.90;99.90
11599;DHT22;5855;48.840;9.188;2023-04-21T00:38:21;3.90;99.90
11599;DHT22;5855;48.840;9.188;2023-04-21T00:40:48;3.90;99.90
11599;DHT22;5855;48.840;9.188;2023-04-21T00:43:14;3.90;99.90
11599;DHT22;5855;48.840;9.188;2023-04-21T00:45:45;3.90;99.90
11599;DHT22;5855;48.840;9.188;2023-04-21T00:48:12;3.90;99.90
11599;DHT22;5855;48.840;9.188;2023-04-21T00:50:39;3.90;99.90
11599;DHT22;5855;48.840;9.188;2023-04-21T00:53:06;3.80;99.90
11599;DHT22;5855;48.840;9.188;2023-04-21T00:55:33;3.80;99.90
11599;DHT22;5855;48.840;9.188;2023-04-21T00:58:01;3.80;99.90
11599;DHT22;5855;48.840;9.188;2023-04-21T01:00:28;3.80;99.90
11599;DHT22;5855;48.840;9.188;2023-04-21T01:02:56;3.80;99.90
11599;DHT22;5855;48.840;9.188;2023-04-21T01:05:25;3.80;99.90
11599;DHT22;5855;48.840;9.188;2023-04-21T01:07:52;3.80;99.90
11599;DHT22;5855;48.840;9.188;2023-04-21T01:10:19;3.70;99.90
11599;DHT22;5855;48.840;9.188;2023-04-21T01:12:46;3.70;99.90
11599;DHT22;5855;48.840;9.188;2023-04-21T01:15:14;3.70;99.90
11599;DHT22;5855;48.840;9.188;2023-04-21T01:17:42;3.70;99.90
11599;DHT22;5855;48.840;9.188;2023-04-21T01:20:12;3.70;99.90
11599;DHT22;5855;48.840;9.188;2023-04-21T01:22:41;3.70;99.90
11599;DHT22;5855;48.840;9.188;2023-04-21T01:25:09;3.60;99.90
11599;DHT22;5855;48.840;9.188;2023-04-21T01:27:36;3.60;99.90
11599;DHT22;5855;48.840;9.188;2023-04-21T01:30:04;3.50;99.90
11599;DHT22;5855;48.840;9.188;2023-04-21T01:32:31;3.50;99.90
11599;DHT22;5855;48.840;9.188;2023-04-21T01:34:58;3.50;99.90
11599;DHT22;5855;48.840;9.188;2023-04-21T01:37:27;3.40;99.90
11599;DHT22;5855;48.840;9.188;2023-04-21T01:39:57;3.40;99.90
11599;DHT22;5855;48.840;9.188;2023-04-21T01:42:26;3.30;99.90
11599;DHT22;5855;48.840;9.188;2023-04-21T01:44:54;3.30;99.90
11599;DHT22;5855;48.840;9.188;2023-04-21T01:47:21;3.20;99.90
11599;DHT22;5855;48.840;9.188;2023-04-21T01:49:48;3.20;99.90
11599;DHT22;5855;48.840;9.188;2023-04-21T01:52:15;3.10;99.90
11599;DHT22;5855;48.840;9.188;2023-04-21T01:54:42;3.10;99.90
11599;DHT22;5855;48.840;9.188;2023-04-21T01:57:10;3.10;99.90
11599;DHT22;5855;48.840;9.188;2023-04-21T01:59:37;3.10;99.90
11599;DHT22;5855;48.840;9.188;2023-04-21T02:02:04;3.10;99.90
11599;DHT22;5855;48.840;9.188;2023-04-21T02:04:31;3.10;99.90
11599;DHT22;5855;48.840;9.188;2023-04-21T02:06:58;3.00;99.90
11599;DHT22;5855;48.840;9.188;2023-04-21T02:09:24;3.00;99.90
11599;DHT22;5855;48.840;9.188;2023-04-21T02:11:51;2.90;99.90
11599;DHT22;5855;48.840;9.188;2023-04-21T02:14:19;2.80;99.90
11599;DHT22;5855;48.840;9.188;2023-04-21T02:16:46;2.80;99.90
11599;DHT22;5855;48.840;9.188;2023-04-21T02:19:13;2.70;99.90
11599;DHT22;5855;48.840;9.188;2023-04-21T02:21:40;2.70;99.90
11599;DHT22;5855;48.840;9.188;2023-04-21T02:24:07;2.70;99.90
11599;DHT22;5855;48.840;9.188;2023-04-21T02:26:33;2.70;99.90
11599;DHT22;5855;48.840;9.188;2023-04-21T02:29:01;2.70;99.90
11599;DHT22;5855;48.840;9.188;2023-04-21T02:31:29;2.80;99.90
11599;DHT22;5855;48.840;9.188;2023-04-21T02:33:56;2.70;99.90
11599;DHT22;5855;48.840;9.188;2023-04-21T02:36:23;2.70;99.90
11599;DHT22;5855;48.840;9.188;2023-04-21T02:38:50;2.70;99.90
11599;DHT22;5855;48.840;9.188;2023-04-21T02:41:17;2.70;99.90
11599;DHT22;5855;48.840;9.188;2023-04-21T02:43:44;2.60;99.90
11599;DHT22;5855;48.840;9.188;2023-04-21T02:46:11;2.60;99.90
11599;DHT22;5855;48.840;9.188;2023-04-21T02:48:39;2.60;99.90
11599;DHT22;5855;48.840;9.188;2023-04-21T02:51:11;2.60;99.90
11599;DHT22;5855;48.840;9.188;2023-04-21T02:53:39;2.50;99.90
11599;DHT22;5855;48.840;9.188;2023-04-21T02:56:06;2.50;99.90
11599;DHT22;5855;48.840;9.188;2023-04-21T02:58:33;2.50;99.90
11599;DHT22;5855;48.840;9.188;2023-04-21T03:01:00;2.50;99.90
11599;DHT22;5855;48.840;9.188;2023-04-21T03:03:28;2.50;99.90
11599;DHT22;5855;48.840;9.188;2023-04-21T03:05:57;2.50;99.90
11599;DHT22;5855;48.840;9.188;2023-04-21T03:08:24;2.60;99.90
11599;DHT22;5855;48.840;9.188;2023-04-21T03:10:50;2.60;99.90
11599;DHT22;5855;48.840;9.188;2023-04-21T03:13:17;2.60;99.90
11599;DHT22;5855;48.840;9.188;2023-04-21T03:15:44;2.50;99.90
11599;DHT22;5855;48.840;9.188;2023-04-21T03:18:12;2.50;99.90
11599;DHT22;5855;48.840;9.188;2023-04-21T03:20:39;2.60;99.90
11599;DHT22;5855;48.840;9.188;2023-04-21T03:23:07;2.60;99.90
11599;DHT22;5855;48.840;9.188;2023-04-21T03:25:33;2.60;99.90
11599;DHT22;5855;48.840;9.188;2023-04-21T03:28:00;2.60;99.90
11599;DHT22;5855;48.840;9.188;2023-04-21T03:30:27;2.70;99.90
11599;DHT22;5855;48.840;9.188;2023-04-21T03:32:54;2.70;99.90
11599;DHT22;5855;48.840;9.188;2023-04-21T03:35:21;2.70;99.90
11599;DHT22;5855;48.840;9.188;2023-04-21T03:37:48;2.80;99.90
11599;DHT22;5855;48.840;9.188;2023-04-21T03:40:16;2.80;99.90
11599;DHT22;5855;48.840;9.188;2023-04-21T03:42:43;2.80;99.90
11599;DHT22;5855;48.840;9.188;2023-04-21T03:45:10;2.80;99.90
11599;DHT22;5855;48.840;9.188;2023-04-21T03:47:37;2.80;99.90
11599;DHT22;5855;48.840;9.188;2023-04-21T03:50:04;2.90;99.90
11599;DHT22;5855;48.840;9.188;2023-04-21T03:52:31;2.80;99.90
11599;DHT22;5855;48.840;9.188;2023-04-21T03:54:58;2.90;99.90
11599;DHT22;5855;48.840;9.188;2023-04-21T03:57:26;2.80;99.90
11599;DHT22;5855;48.840;9.188;2023-04-21T03:59:53;2.90;99.90
11599;DHT22;5855;48.840;9.188;2023-04-21T04:02:20;2.90;99.90
11599;DHT22;5855;48.840;9.188;2023-04-21T04:04:46;2.90;99.90
11599;DHT22;5855;48.840;9.188;2023-04-21T04:07:13;2.90;99.90
11599;DHT22;5855;48.840;9.188;2023-04-21T04:09:42;2.90;99.90
11599;DHT22;5855;48.840;9.188;2023-04-21T04:12:09;3.00;99.90
11599;DHT22;5855;48.840;9.188;2023-04-21T04:14:37;3.00;99.90
11599;DHT22;5855;48.840;9.188;2023-04-21T04:17:04;3.00;99.90
11599;DHT22;5855;48.840;9.188;2023-04-21T04:19:30;3.00;99.90
11599;DHT22;5855;48.840;9.188;2023-04-21T04:21:58;3.00;99.90
11599;DHT22;5855;48.840;9.188;2023-04-21T04:24:25;3.00;99.90
11599;DHT22;5855;48.840;9.188;2023-04-21T04:26:52;3.10;99.90
11599;DHT22;5855;48.840;9.188;2023-04-21T04:29:19;3.10;99.90
11599;DHT22;5855;48.840;9.188;2023-04-21T04:31:49;3.20;99.90
11599;DHT22;5855;48.840;9.188;2023-04-21T04:34:16;3.20;99.90
11599;DHT22;5855;48.840;9.188;2023-04-21T04:36:43;3.20;99.90
11599;DHT22;5855;48.840;9.188;2023-04-21T04:39:10;3.20;99.90
11599;DHT22;5855;48.840;9.188;2023-04-21T04:41:37;3.30;99.90
11599;DHT22;5855;48.840;9.188;2023-04-21T04:44:04;3.30;99.90
11599;DHT22;5855;48.840;9.188;2023-04-21T04:46:31;3.30;99.90
11599;DHT22;5855;48.840;9.188;2023-04-21T04:48:59;3.30;99.90
11599;DHT22;5855;48.840;9.188;2023-04-21T04:51:26;3.30;99.90
11599;DHT22;5855;48.840;9.188;2023-04-21T04:53:53;3.40;99.90
11599;DHT22;5855;48.840;9.188;2023-04-21T04:56:20;3.50;99.90
11599;DHT22;5855;48.840;9.188;2023-04-21T04:58:48;3.50;99.90
11599;DHT22;5855;48.840;9.188;2023-04-21T05:01:15;3.60;99.90
11599;DHT22;5855;48.840;9.188;2023-04-21T05:03:43;3.60;99.90
11599;DHT22;5855;48.840;9.188;2023-04-21T05:06:12;3.70;99.90
11599;DHT22;5855;48.840;9.188;2023-04-21T05:08:39;3.80;99.90
11599;DHT22;5855;48.840;9.188;2023-04-21T05:11:06;3.80;99.90
11599;DHT22;5855;48.840;9.188;2023-04-21T05:13:33;3.80;99.90
11599;DHT22;5855;48.840;9.188;2023-04-21T05:16:01;3.90;99.90
11599;DHT22;5855;48.840;9.188;2023-04-21T05:18:27;3.90;99.90
11599;DHT22;5855;48.840;9.188;2023-04-21T05:20:55;3.90;99.90
11599;DHT22;5855;48.840;9.188;2023-04-21T05:23:23;4.00;99.90
11599;DHT22;5855;48.840;9.188;2023-04-21T05:25:50;4.00;99.90
11599;DHT22;5855;48.840;9.188;2023-04-21T05:28:16;4.10;99.90
11599;DHT22;5855;48.840;9.188;2023-04-21T05:30:43;4.10;99.90
11599;DHT22;5855;48.840;9.188;2023-04-21T05:33:10;4.20;99.90
11599;DHT22;5855;48.840;9.188;2023-04-21T05:35:37;4.20;99.90
11599;DHT22;5855;48.840;9.188;2023-04-21T05:38:04;4.20;99.90
11599;DHT22;5855;48.840;9.188;2023-04-21T05:40:33;4.20;99.90
11599;DHT22;5855;48.840;9.188;2023-04-21T05:42:59;4.30;99.90
11599;DHT22;5855;48.840;9.188;2023-04-21T05:45:26;4.30;99.90
11599;DHT22;5855;48.840;9.188;2023-04-21T05:47:53;4.30;99.90
11599;DHT22;5855;48.840;9.188;2023-04-21T05:50:20;4.30;99.90
11599;DHT22;5855;48.840;9.188;2023-04-21T05:52:47;4.40;99.90
11599;DHT22;5855;48.840;9.188;2023-04-21T05:55:14;4.40;99.90
11599;DHT22;5855;48.840;9.188;2023-04-21T05:57:42;4.50;99.90
11599;DHT22;5855;48.840;9.188;2023-04-21T06:00:10;4.50;99.90
11599;DHT22;5855;48.840;9.188;2023-04-21T06:02:37;4.60;99.90
11599;DHT22;5855;48.840;9.188;2023-04-21T06:05:04;4.70;99.90
11599;DHT22;5855;48.840;9.188;2023-04-21T06:07:31;4.80;99.90
11599;DHT22;5855;48.840;9.188;2023-04-21T06:09:58;4.90;99.90
11599;DHT22;5855;48.840;9.188;2023-04-21T06:12:24;5.00;99.90
11599;DHT22;5855;48.840;9.188;2023-04-21T06:14:53;5.10;99.90
11599;DHT22;5855;48.840;9.188;2023-04-21T06:17:22;5.30;99.90
11599;DHT22;5855;48.840;9.188;2023-04-21T06:19:48;5.50;99.90
11599;DHT22;5855;48.840;9.188;2023-04-21T06:22:18;5.70;99.90
11599;DHT22;5855;48.840;9.188;2023-04-21T06:24:45;5.80;99.90
11599;DHT22;5855;48.840;9.188;2023-04-21T06:27:11;6.00;99.90
11599;DHT22;5855;48.840;9.188;2023-04-21T06:29:39;6.00;99.90
11599;DHT22;5855;48.840;9.188;2023-04-21T06:32:08;6.10;99.90
11599;DHT22;5855;48.840;9.188;2023-04-21T06:34:35;6.20;99.90
11599;DHT22;5855;48.840;9.188;2023-04-21T06:37:02;6.20;99.90
11599;DHT22;5855;48.840;9.188;2023-04-21T06:39:28;6.30;99.90
11599;DHT22;5855;48.840;9.188;2023-04-21T06:41:55;6.50;99.90
11599;DHT22;5855;48.840;9.188;2023-04-21T06:44:23;6.70;99.90
11599;DHT22;5855;48.840;9.188;2023-04-21T06:46:50;6.90;99.90
11599;DHT22;5855;48.840;9.188;2023-04-21T06:49:18;7.10;99.90
11599;DHT22;5855;48.840;9.188;2023-04-21T06:51:45;7.20;99.90
11599;DHT22;5855;48.840;9.188;2023-04-21T06:54:11;7.30;99.90
11599;DHT22;5855;48.840;9.188;2023-04-21T06:56:38;7.40;99.90
11599;DHT22;5855;48.840;9.188;2023-04-21T06:59:07;7.40;99.90
11599;DHT22;5855;48.840;9.188;2023-04-21T07:01:34;7.40;99.90
11599;DHT22;5855;48.840;9.188;2023-04-21T07:04:01;7.40;99.90
11599;DHT22;5855;48.840;9.188;2023-04-21T07:06:29;7.40;99.90
11599;DHT22;5855;48.840;9.188;2023-04-21T07:08:57;7.40;99.90
11599;DHT22;5855;48.840;9.188;2023-04-21T07:11:24;7.40;99.90
11599;DHT22;5855;48.840;9.188;2023-04-21T07:13:53;7.40;99.90
11599;DHT22;5855;48.840;9.188;2023-04-21T07:16:19;7.40;99.90
11599;DHT22;5855;48.840;9.188;2023-04-21T07:18:46;7.40;99.90
11599;DHT22;5855;48.840;9.188;2023-04-21T07:21:13;7.50;99.90
11599;DHT22;5855;48.840;9.188;2023-04-21T07:23:41;7.50;99.90
11599;DHT22;5855;48.840;9.188;2023-04-21T07:26:08;7.50;99.90
11599;DHT22;5855;48.840;9.188;2023-04-21T07:28:35;7.60;99.90
11599;DHT22;5855;48.840;9.188;2023-04-21T07:31:02;7.70;99.90
11599;DHT22;5855;48.840;9.188;2023-04-21T07:33:29;7.90;99.90
11599;DHT22;5855;48.840;9.188;2023-04-21T07:35:56;8.10;99.90
11599;DHT22;5855;48.840;9.188;2023-04-21T07:38:22;8.20;99.90
11599;DHT22;5855;48.840;9.188;2023-04-21T07:40:51;8.30;99.90
11599;DHT22;5855;48.840;9.188;2023-04-21T07:43:17;8.40;99.90
11599;DHT22;5855;48.840;9.188;2023-04-21T07:45:44;8.70;99.90
11599;DHT22;5855;48.840;9.188;2023-04-21T07:48:11;8.70;99.90
11599;DHT22;5855;48.840;9.188;2023-04-21T07:50:38;8.90;99.90
11599;DHT22;5855;48.840;9.188;2023-04-21T07:53:05;9.00;99.90
11599;DHT22;5855;48.840;9.188;2023-04-21T07:55:32;9.20;99.90
11599;DHT22;5855;48.840;9.188;2023-04-21T07:58:03;9.30;99.90
11599;DHT22;5855;48.840;9.188;2023-04-21T08:00:30;9.50;99.90
11599;DHT22;5855;48.840;9.188;2023-04-21T08:02:56;9.60;99.90
11599;DHT22;5855;48.840;9.188;2023-04-21T08:05:23;9.70;99.90
11599;DHT22;5855;48.840;9.188;2023-04-21T08:07:50;9.70;99.90
11599;DHT22;5855;48.840;9.188;2023-04-21T08:10:17;9.90;99.90
11599;DHT22;5855;48.840;9.188;2023-04-21T08:12:44;10.10;99.90
11599;DHT22;5855;48.840;9.188;2023-04-21T08:15:12;10.30;99.90
11599;DHT22;5855;48.840;9.188;2023-04-21T08:17:39;10.50;99.90
11599;DHT22;5855;48.840;9.188;2023-04-21T08:20:07;10.80;99.90
11599;DHT22;5855;48.840;9.188;2023-04-21T08:22:34;11.00;99.90
11599;DHT22;5855;48.840;9.188;2023-04-21T08:25:01;11.30;99.90
11599;DHT22;5855;48.840;9.188;2023-04-21T08:27:28;11.50;99.90
11599;DHT22;5855;48.840;9.188;2023-04-21T08:29:55;11.40;99.90
11599;DHT22;5855;48.840;9.188;2023-04-21T08:32:23;11.40;99.90
11599;DHT22;5855;48.840;9.188;2023-04-21T08:34:51;11.40;99.90
11599;DHT22;5855;48.840;9.188;2023-04-21T08:37:18;11.40;99.90
11599;DHT22;5855;48.840;9.188;2023-04-21T08:39:45;11.60;99.90
11599;DHT22;5855;48.840;9.188;2023-04-21T08:42:12;11.90;99.90
11599;DHT22;5855;48.840;9.188;2023-04-21T08:44:40;12.30;99.90
11599;DHT22;5855;48.840;9.188;2023-04-21T08:47:09;12.60;99.90
11599;DHT22;5855;48.840;9.188;2023-04-21T08:49:39;12.80;99.90
11599;DHT22;5855;48.840;9.188;2023-04-21T08:52:07;13.20;99.90
11599;DHT22;5855;48.840;9.188;2023-04-21T08:54:34;13.30;99.90
11599;DHT22;5855;48.840;9.188;2023-04-21T08:57:01;13.50;99.90
11599;DHT22;5855;48.840;9.188;2023-04-21T08:59:30;13.70;99.90
11599;DHT22;5855;48.840;9.188;2023-04-21T09:02:10;13.50;99.90
11599;DHT22;5855;48.840;9.188;2023-04-21T09:04:39;13.50;99.90
11599;DHT22;5855;48.840;9.188;2023-04-21T09:07:07;13.70;99.90
11599;DHT22;5855;48.840;9.188;2023-04-21T09:09:50;13.70;99.90
11599;DHT22;5855;48.840;9.188;2023-04-21T09:12:17;13.80;99.90
11599;DHT22;5855;48.840;9.188;2023-04-21T09:14:44;14.00;99.90
11599;DHT22;5855;48.840;9.188;2023-04-21T09:17:11;14.30;99.90
11599;DHT22;5855;48.840;9.188;2023-04-21T09:19:39;14.60;99.90
11599;DHT22;5855;48.840;9.188;2023-04-21T09:22:06;14.60;99.90
11599;DHT22;5855;48.840;9.188;2023-04-21T09:24:33;14.80;99.90
11599;DHT22;5855;48.840;9.188;2023-04-21T09:27:02;15.00;99.90
11599;DHT22;5855;48.840;9.188;2023-04-21T09:29:29;15.10;99.90
11599;DHT22;5855;48.840;9.188;2023-04-21T09:31:56;15.30;99.90
11599;DHT22;5855;48.840;9.188;2023-04-21T09:34:24;15.40;99.90
11599;DHT22;5855;48.840;9.188;2023-04-21T09:37:00;15.70;99.90
11599;DHT22;5855;48.840;9.188;2023-04-21T09:39:28;16.10;99.90
11599;DHT22;5855;48.840;9.188;2023-04-21T09:41:55;16.30;99.90
11599;DHT22;5855;48.840;9.188;2023-04-21T09:44:23;16.70;99.90
11599;DHT22;5855;48.840;9.188;2023-04-21T09:46:50;17.00;99.90
11599;DHT22;5855;48.840;9.188;2023-04-21T09:49:21;17.30;99.90
11599;DHT22;5855;48.840;9.188;2023-04-21T09:51:49;17.30;99.90
11599;DHT22;5855;48.840;9.188;2023-04-21T09:54:18;17.40;99.90
11599;DHT22;5855;48.840;9.188;2023-04-21T09:56:48;17.30;99.90
11599;DHT22;5855;48.840;9.188;2023-04-21T09:59:18;17.10;99.90
11599;DHT22;5855;48.840;9.188;2023-04-21T10:01:47;17.10;99.90
11599;DHT22;5855;48.840;9.188;2023-04-21T10:04:16;17.40;99.90
11599;DHT22;5855;48.840;9.188;2023-04-21T10:06:44;17.60;99.90
11599;DHT22;5855;48.840;9.188;2023-04-21T10:09:13;17.80;99.90
11599;DHT22;5855;48.840;9.188;2023-04-21T10:11:42;18.10;99.90
11599;DHT22;5855;48.840;9.188;2023-04-21T10:14:09;18.20;99.90
11599;DHT22;5855;48.840;9.188;2023-04-21T10:16:36;18.30;99.90
11599;DHT22;5855;48.840;9.188;2023-04-21T10:19:22;18.50;99.90
11599;DHT22;5855;48.840;9.188;2023-04-21T10:21:49;18.80;99.90
11599;DHT22;5855;48.840;9.188;2023-04-21T10:24:16;18.90;99.90
11599;DHT22;5855;48.840;9.188;2023-04-21T10:26:44;18.90;99.90
11599;DHT22;5855;48.840;9.188;2023-04-21T10:29:11;19.10;99.90
11599;DHT22;5855;48.840;9.188;2023-04-21T10:31:49;19.30;99.90
11599;DHT22;5855;48.840;9.188;2023-04-21T10:34:18;19.40;99.90
11599;DHT22;5855;48.840;9.188;2023-04-21T10:37:07;19.80;99.90
11599;DHT22;5855;48.840;9.188;2023-04-21T10:39:35;20.20;99.90
11599;DHT22;5855;48.840;9.188;2023-04-21T10:42:20;20.60;99.90
11599;DHT22;5855;48.840;9.188;2023-04-21T10:45:04;20.70;99.90
11599;DHT22;5855;48.840;9.188;2023-04-21T10:47:36;20.50;99.90
11599;DHT22;5855;48.840;9.188;2023-04-21T10:50:17;20.50;99.90
11599;DHT22;5855;48.840;9.188;2023-04-21T10:52:50;20.50;99.90
11599;DHT22;5855;48.840;9.188;2023-04-21T10:55:17;20.70;99.90
11599;DHT22;5855;48.840;9.188;2023-04-21T10:57:46;20.50;99.90
11599;DHT22;5855;48.840;9.188;2023-04-21T11:00:15;20.60;99.90
11599;DHT22;5855;48.840;9.188;2023-04-21T11:02:43;20.80;99.90
11599;DHT22;5855;48.840;9.188;2023-04-21T11:05:10;21.00;99.90
11599;DHT22;5855;48.840;9.188;2023-04-21T11:07:37;21.50;99.90
11599;DHT22;5855;48.840;9.188;2023-04-21T11:10:05;22.00;99.90
11599;DHT22;5855;48.840;9.188;2023-04-21T11:12:38;22.30;99.40
11599;DHT22;5855;48.840;9.188;2023-04-21T11:15:08;22.40;99.30
11599;DHT22;5855;48.840;9.188;2023-04-21T11:17:36;22.80;98.90
11599;DHT22;5855;48.840;9.188;2023-04-21T11:20:05;23.40;97.80
11599;DHT22;5855;48.840;9.188;2023-04-21T11:22:33;23.80;96.70
11599;DHT22;5855;48.840;9.188;2023-04-21T11:25:01;23.80;96.30
11599;DHT22;5855;48.840;9.188;2023-04-21T11:27:29;24.30;96.00
11599;DHT22;5855;48.840;9.188;2023-04-21T11:29:56;25.30;94.70
11599;DHT22;5855;48.840;9.188;2023-04-21T11:32:24;25.80;91.30
11599;DHT22;5855;48.840;9.188;2023-04-21T11:34:51;26.20;89.20
11599;DHT22;5855;48.840;9.188;2023-04-21T11:37:23;26.00;85.60
11599;DHT22;5855;48.840;9.188;2023-04-21T11:39:58;26.20;83.10
11599;DHT22;5855;48.840;9.188;2023-04-21T11:42:26;26.50;83.70
11599;DHT22;5855;48.840;9.188;2023-04-21T11:44:53;27.10;80.10
11599;DHT22;5855;48.840;9.188;2023-04-21T11:47:22;27.60;79.10
11599;DHT22;5855;48.840;9.188;2023-04-21T11:49:52;28.10;75.80
11599;DHT22;5855;48.840;9.188;2023-04-21T11:52:22;28.80;73.10
11599;DHT22;5855;48.840;9.188;2023-04-21T11:54:54;29.30;70.10
11599;DHT22;5855;48.840;9.188;2023-04-21T11:57:22;29.80;67.60
11599;DHT22;5855;48.840;9.188;2023-04-21T11:59:50;30.40;63.90
11599;DHT22;5855;48.840;9.188;2023-04-21T12:02:24;30.70;59.70
11599;DHT22;5855;48.840;9.188;2023-04-21T12:05:00;29.60;58.40
11599;DHT22;5855;48.840;9.188;2023-04-21T12:07:29;30.30;58.90
11599;DHT22;5855;48.840;9.188;2023-04-21T12:09:56;31.10;57.00
11599;DHT22;5855;48.840;9.188;2023-04-21T12:12:23;31.20;53.80
11599;DHT22;5855;48.840;9.188;2023-04-21T12:14:50;31.50;54.00
11599;DHT22;5855;48.840;9.188;2023-04-21T12:17:17;31.80;51.60
11599;DHT22;5855;48.840;9.188;2023-04-21T12:19:44;31.80;52.40
11599;DHT22;5855;48.840;9.188;2023-04-21T12:22:15;32.50;50.00
11599;DHT22;5855;48.840;9.188;2023-04-21T12:24:43;33.40;47.40
11599;DHT22;5855;48.840;9.188;2023-04-21T12:27:10;33.50;46.30
11599;DHT22;5855;48.840;9.188;2023-04-21T12:29:38;34.10;43.60
11599;DHT22;5855;48.840;9.188;2023-04-21T12:32:05;34.30;41.60
11599;DHT22;5855;48.840;9.188;2023-04-21T12:34:32;33.20;42.20
11599;DHT22;5855;48.840;9.188;2023-04-21T12:36:59;33.80;42.00
11599;DHT22;5855;48.840;9.188;2023-04-21T12:39:28;34.30;41.60
11599;DHT22;5855;48.840;9.188;2023-04-21T12:41:55;35.20;39.50
11599;DHT22;5855;48.840;9.188;2023-04-21T12:44:22;36.20;37.70
11599;DHT22;5855;48.840;9.188;2023-04-21T12:46:49;37.00;35.40
11599;DHT22;5855;48.840;9.188;2023-04-21T12:49:16;36.50;35.10
11599;DHT22;5855;48.840;9.188;2023-04-21T12:51:44;36.20;35.30
11599;DHT22;5855;48.840;9.188;2023-04-21T12:54:11;36.60;34.10
11599;DHT22;5855;48.840;9.188;2023-04-21T12:56:39;37.30;33.50
11599;DHT22;5855;48.840;9.188;2023-04-21T12:59:06;38.00;31.20
11599;DHT22;5855;48.840;9.188;2023-04-21T13:01:34;37.50;30.10
11599;DHT22;5855;48.840;9.188;2023-04-21T13:04:01;37.60;31.00
11599;DHT22;5855;48.840;9.188;2023-04-21T13:06:28;38.50;30.70
11599;DHT22;5855;48.840;9.188;2023-04-21T13:08:55;38.90;30.50
11599;DHT22;5855;48.840;9.188;2023-04-21T13:11:22;39.30;29.30
11599;DHT22;5855;48.840;9.188;2023-04-21T13:13:50;39.90;27.00
11599;DHT22;5855;48.840;9.188;2023-04-21T13:16:17;40.70;27.50
11599;DHT22;5855;48.840;9.188;2023-04-21T13:18:45;41.10;26.20
11599;DHT22;5855;48.840;9.188;2023-04-21T13:21:11;41.10;24.90
11599;DHT22;5855;48.840;9.188;2023-04-21T13:23:39;41.30;25.90
11599;DHT22;5855;48.840;9.188;2023-04-21T13:26:06;41.80;25.00
11599;DHT22;5855;48.840;9.188;2023-04-21T13:28:32;42.00;24.70
11599;DHT22;5855;48.840;9.188;2023-04-21T13:31:01;41.70;23.50
11599;DHT22;5855;48.840;9.188;2023-04-21T13:33:27;41.50;22.90
11599;DHT22;5855;48.840;9.188;2023-04-21T13:35:54;41.20;22.70
11599;DHT22;5855;48.840;9.188;2023-04-21T13:38:21;41.60;22.90
11599;DHT22;5855;48.840;9.188;2023-04-21T13:40:48;41.90;23.10
11599;DHT22;5855;48.840;9.188;2023-04-21T13:43:15;41.90;22.70
11599;DHT22;5855;48.840;9.188;2023-04-21T13:45:42;42.60;22.60
11599;DHT22;5855;48.840;9.188;2023-04-21T13:48:12;42.80;22.00
11599;DHT22;5855;48.840;9.188;2023-04-21T13:50:38;43.70;21.90
11599;DHT22;5855;48.840;9.188;2023-04-21T13:53:05;44.00;21.20
11599;DHT22;5855;48.840;9.188;2023-04-21T13:55:32;44.30;20.90
11599;DHT22;5855;48.840;9.188;2023-04-21T13:57:59;44.60;19.60
11599;DHT22;5855;48.840;9.188;2023-04-21T14:00:26;44.40;20.10
11599;DHT22;5855;48.840;9.188;2023-04-21T14:02:54;44.80;20.10
11599;DHT22;5855;48.840;9.188;2023-04-21T14:05:22;45.00;19.90
11599;DHT22;5855;48.840;9.188;2023-04-21T14:07:49;45.50;19.10
11599;DHT22;5855;48.840;9.188;2023-04-21T14:10:16;45.60;19.10
11599;DHT22;5855;48.840;9.188;2023-04-21T14:12:42;45.20;19.00
11599;DHT22;5855;48.840;9.188;2023-04-21T14:15:11;45.10;18.80
11599;DHT22;5855;48.840;9.188;2023-04-21T14:17:38;45.20;18.80
11599;DHT22;5855;48.840;9.188;2023-04-21T14:20:06;45.80;18.90
11599;DHT22;5855;48.840;9.188;2023-04-21T14:22:35;45.70;18.40
11599;DHT22;5855;48.840;9.188;2023-04-21T14:25:02;44.80;18.60
11599;DHT22;5855;48.840;9.188;2023-04-21T14:27:29;44.10;18.80
11599;DHT22;5855;48.840;9.188;2023-04-21T14:29:56;44.50;19.00
11599;DHT22;5855;48.840;9.188;2023-04-21T14:32:23;44.90;18.50
11599;DHT22;5855;48.840;9.188;2023-04-21T14:34:51;45.30;18.40
11599;DHT22;5855;48.840;9.188;2023-04-21T14:37:19;45.80;17.60
11599;DHT22;5855;48.840;9.188;2023-04-21T14:39:47;46.00;17.20
11599;DHT22;5855;48.840;9.188;2023-04-21T14:42:14;45.90;17.40
11599;DHT22;5855;48.840;9.188;2023-04-21T14:44:41;46.00;17.40
11599;DHT22;5855;48.840;9.188;2023-04-21T14:47:08;46.30;16.00
11599;DHT22;5855;48.840;9.188;2023-04-21T14:49:35;46.30;15.30
11599;DHT22;5855;48.840;9.188;2023-04-21T14:52:02;47.10;14.70
11599;DHT22;5855;48.840;9.188;2023-04-21T14:54:29;47.50;14.10
11599;DHT22;5855;48.840;9.188;2023-04-21T14:56:57;47.30;14.10
11599;DHT22;5855;48.840;9.188;2023-04-21T14:59:25;47.00;14.20
11599;DHT22;5855;48.840;9.188;2023-04-21T15:01:52;46.90;14.10
11599;DHT22;5855;48.840;9.188;2023-04-21T15:04:19;47.10;14.00
11599;DHT22;5855;48.840;9.188;2023-04-21T15:06:45;47.20;13.90
11599;DHT22;5855;48.840;9.188;2023-04-21T15:09:12;46.80;13.90
11599;DHT22;5855;48.840;9.188;2023-04-21T15:11:39;46.20;14.20
11599;DHT22;5855;48.840;9.188;2023-04-21T15:14:07;45.70;14.40
11599;DHT22;5855;48.840;9.188;2023-04-21T15:16:34;45.60;14.60
11599;DHT22;5855;48.840;9.188;2023-04-21T15:19:01;45.20;14.40
11599;DHT22;5855;48.840;9.188;2023-04-21T15:21:29;45.30;14.50
11599;DHT22;5855;48.840;9.188;2023-04-21T15:23:56;45.30;14.50
11599;DHT22;5855;48.840;9.188;2023-04-21T15:26:23;45.40;14.80
11599;DHT22;5855;48.840;9.188;2023-04-21T15:28:50;45.10;14.60
11599;DHT22;5855;48.840;9.188;2023-04-21T15:31:18;44.90;14.70
11599;DHT22;5855;48.840;9.188;2023-04-21T15:33:45;44.80;14.40
11599;DHT22;5855;48.840;9.188;2023-04-21T15:36:12;44.20;14.80
11599;DHT22;5855;48.840;9.188;2023-04-21T15:38:38;42.50;15.70
11599;DHT22;5855;48.840;9.188;2023-04-21T15:41:06;40.20;16.20
11599;DHT22;5855;48.840;9.188;2023-04-21T15:43:34;36.00;18.60
11599;DHT22;5855;48.840;9.188;2023-04-21T15:46:01;32.60;21.90
11599;DHT22;5855;48.840;9.188;2023-04-21T15:48:30;31.10;24.10
11599;DHT22;5855;48.840;9.188;2023-04-21T15:50:57;29.80;25.50
11599;DHT22;5855;48.840;9.188;2023-04-21T15:53:24;28.60;27.50
11599;DHT22;5855;48.840;9.188;2023-04-21T15:55:52;27.40;29.10
11599;DHT22;5855;48.840;9.188;2023-04-21T15:58:18;27.00;30.40